Latest Coastal Weather Observations for Norah Head

IDN60701

Issued at 10:21 pm EST Thursday 5 May 2016 (issued every 10 minutes, with the page automatically refreshed every 10 minutes)

About coastal observations | Map of coastal stations | Coastal observations for NSW | Marine services | Other Formats
Station Details ID: 061366 Name: NORAH HEAD AWS Lat: -33.28 Lon: 151.58 Height: 18.8 m
Data from the previous 72 hours. | See also: Recent months at Norah Head
Date/Time
EST
Temp

°C
Wind Pressure Rain
since 9am
mm
Weather Cloud Vis
km
Sea
Height
m
Swell
Dir
 
Speed
knots
Gust
knots
hPa Trend Height
m
Period
s
Dir
05/10:00pm 17.6 NW 5 7 1017.9 - 0.0 - - - - - - -
05/09:30pm 18.5 NNW 6 7 1018.0 - 0.0 - - - - - - -
05/09:00pm 19.1 N 7 9 1018.1 - 0.0 - - - - - - -
05/08:30pm 19.3 N 12 13 1018.0 - 0.0 - - - - - - -
05/08:00pm 19.4 N 11 12 1017.9 - 0.0 - - - - - - -
05/07:30pm 19.6 N 10 12 1017.9 - 0.0 - - - - - - -
05/07:00pm 20.4 NNE 14 16 1017.6 - 0.0 - - - - - - -
05/06:30pm 20.3 NNE 14 17 1017.4 - 0.0 - - - - - - -
05/06:00pm 20.0 NE 11 13 1017.3 - 0.0 - - - - - - -
05/05:30pm 19.7 NE 10 11 1017.1 - 0.0 - - - - - - -
05/05:00pm 19.6 NE 8 10 1017.0 - 0.0 - - - - - - -
05/04:30pm 19.8 ENE 8 9 1016.9 - 0.0 - - - - - - -
05/04:00pm 20.3 ENE 7 9 1017.0 - 0.0 - - - - - - -
05/03:30pm 20.3 ENE 7 9 1017.1 - 0.0 - - - - - - -
05/03:00pm 20.3 E 7 8 1017.1 - 0.0 - - - - - - -
05/02:30pm 20.3 E 7 9 1017.2 - 0.0 - - - - - - -
05/02:00pm 20.3 E 7 9 1017.3 - 0.0 - - - - - - -
05/01:30pm 20.5 ESE 7 8 1017.5 - 0.0 - - - - - - -
05/01:00pm 20.6 E 7 9 1017.7 - 0.0 - - - - - - -
05/12:30pm 21.0 ESE 6 7 1018.0 - 0.0 - - - - - - -
05/12:00pm 21.5 SE 6 7 1018.6 - 0.0 - - - - - - -
05/11:30am 21.7 SE 5 6 1019.1 - 0.0 - - - - - - -
05/11:00am 21.0 SSE 4 5 1019.6 - 0.0 - - - - - - -
05/10:30am 20.7 SSE 2 3 1020.0 - 0.0 - - - - - - -
05/10:00am 20.6 SW 1 4 1020.3 - 0.0 - - - - - - -
05/09:30am 18.7 WSW 2 4 1020.5 - 0.0 - - - - - - -
05/09:00am 18.0 W 5 7 1020.5 - 0.0 - - - - - - -
05/08:30am 17.3 W 3 5 1020.4 - 0.0 - - - - - - -
05/08:00am 16.4 W 4 7 1020.2 - 0.0 - - - - - - -
05/07:30am 15.9 W 5 7 1019.9 - 0.0 - - - - - - -
05/07:00am 15.4 W 6 9 1019.5 - 0.0 - - - - - - -
05/06:30am 15.4 W 5 7 1019.2 - 0.0 - - - - - - -
05/06:00am 15.8 W 7 10 1019.0 - 0.0 - - - - - - -
05/05:30am 15.6 W 8 11 1018.6 - 0.0 - - - - - - -
05/05:00am 15.6 W 7 10 1018.5 - 0.0 - - - - - - -
05/04:30am 15.6 W 8 11 1018.1 - 0.0 - - - - - - -
05/04:00am 15.7 W 8 11 1017.9 - 0.0 - - - - - - -
05/03:30am 15.7 W 8 10 1017.7 - 0.0 - - - - - - -
05/03:00am 15.8 W 8 10 1017.6 - 0.0 - - - - - - -
05/02:30am 16.1 W 8 11 1017.7 - 0.0 - - - - - - -
05/02:00am 16.0 W 8 11 1017.8 - 0.0 - - - - - - -
05/01:30am 16.1 W 8 11 1017.8 - 0.0 - - - - - - -
05/01:00am 16.3 W 8 10 1018.0 - 0.0 - - - - - - -
05/12:30am 17.0 WSW 7 8 1018.1 - 0.0 - - - - - - -
05/12:00am 18.7 SW 5 8 1018.1 - 0.0 - - - - - - -
 
Date/Time
EST
Temp

°C
Wind Pressure Rain
since 9am
mm
Weather Cloud Vis
km
Sea
Height
m
Swell
Dir
 
Speed
knots
Gust
knots
hPa Trend Height
m
Period
s
Dir
04/11:30pm 18.8 SW 7 9 1017.9 - 0.0 - - - - - - -
04/11:00pm 19.0 SW 6 8 1018.1 - 0.0 - - - - - - -
04/10:30pm 19.0 SW 4 5 1018.2 - 0.0 - - - - - - -
04/10:00pm 19.0 SW 3 5 1018.3 - 0.0 - - - - - - -
04/09:30pm 19.2 NW 2 2 1018.2 - 0.0 - - - - - - -
04/09:00pm 19.8 N 1 3 1018.0 - 0.0 - - - - - - -
04/08:30pm 20.1 ENE 3 3 1017.7 - 0.0 - - - - - - -
04/08:00pm 20.6 ESE 4 5 1017.4 - 0.0 - - - - - - -
04/07:30pm 20.8 ESE 6 7 1017.0 - 0.0 - - - - - - -
04/07:00pm 21.0 E 7 8 1016.5 - 0.0 - - - - - - -
04/06:30pm 21.0 E 8 9 1016.1 - 0.0 - - - - - - -
04/06:00pm 21.0 E 9 10 1015.6 - 0.0 - - - - - - -
04/05:30pm 20.8 ESE 10 11 1015.1 - 0.0 - - - - - - -
04/05:00pm 21.1 ESE 10 12 1014.6 - 0.0 - - - - - - -
04/04:30pm 20.9 ESE 11 13 1014.3 - 0.0 - - - - - - -
04/04:00pm 21.4 ESE 11 13 1014.2 - 0.0 - - - - - - -
04/03:30pm 21.7 SE 11 13 1014.0 - 0.0 - - - - - - -
04/03:00pm 23.0 ESE 5 8 1014.0 - 0.0 - - - - - - -
04/02:30pm 23.4 ENE 4 6 1014.1 - 0.0 - - - - - - -
04/02:00pm 24.2 SSW 3 5 1014.1 - 0.0 - - - - - - -
04/01:30pm 24.2 W 3 7 1014.0 - 0.0 - - - - - - -
04/01:00pm 23.8 W 3 7 1014.3 - 0.0 - - - - - - -
04/12:30pm 24.4 W 5 11 1014.5 - 0.0 - - - - - - -
04/12:00pm 24.3 WNW 4 7 1014.5 - 0.0 - - - - - - -
04/11:30am 23.7 WNW 5 10 1014.8 - 0.0 - - - - - - -
04/11:00am 23.4 WNW 5 9 1015.0 - 0.0 - - - - - - -
04/10:30am 23.1 NW 5 10 1015.2 - 0.0 - - - - - - -
04/10:00am 22.9 NW 4 9 1015.3 - 0.0 - - - - - - -
04/09:30am 21.9 WNW 6 12 1015.1 - 0.0 - - - - - - -
04/09:00am 20.2 NW 5 9 1015.1 - 0.0 - - - - - - -
04/08:30am 19.6 WNW 5 9 1015.1 - 0.0 - - - - - - -
04/08:00am 18.5 WNW 5 10 1014.8 - 0.0 - - - - - - -
04/07:30am 17.3 WNW 5 9 1014.4 - 0.0 - - - - - - -
04/07:00am 16.4 WNW 6 8 1013.9 - 0.0 - - - - - - -
04/06:30am 15.8 WNW 5 8 1013.6 - 0.0 - - - - - - -
04/06:00am 16.4 NW 6 9 1013.1 - 0.0 - - - - - - -
04/05:30am 16.4 WNW 5 8 1012.8 - 0.0 - - - - - - -
04/05:00am 16.5 NW 6 9 1012.7 - 0.0 - - - - - - -
04/04:30am 16.9 NW 5 9 1012.4 - 0.0 - - - - - - -
04/04:00am 17.1 NW 5 9 1012.2 - 0.0 - - - - - - -
04/03:30am 16.9 NW 4 7 1012.0 - 0.0 - - - - - - -
04/03:00am 16.7 NW 3 6 1012.0 - 0.0 - - - - - - -
04/02:30am 16.6 NW 3 6 1012.0 - 0.0 - - - - - - -
04/02:00am 17.1 NNW 3 5 1012.2 - 0.0 - - - - - - -
04/01:30am 17.4 NW 3 6 1012.1 - 0.0 - - - - - - -
04/01:00am 17.4 NW 3 5 1012.0 - 0.0 - - - - - - -
04/12:30am 17.7 NW 3 4 1011.9 - 0.0 - - - - - - -
04/12:00am 17.8 WNW 3 6 1011.8 - 0.0 - - - - - - -
 
Date/Time
EST
Temp

°C
Wind Pressure Rain
since 9am
mm
Weather Cloud Vis
km
Sea
Height
m
Swell
Dir
 
Speed
knots
Gust
knots
hPa Trend Height
m
Period
s
Dir
03/11:30pm 17.6 NW 3 4 1011.6 - 0.0 - - - - - - -
03/11:00pm 17.8 NW 2 4 1011.4 - 0.0 - - - - - - -
03/10:30pm 17.9 WNW 3 5 1011.3 - 0.0 - - - - - - -
03/10:00pm 18.1 WNW 3 5 1011.0 - 0.0 - - - - - - -
03/09:30pm 17.7 NW 4 5 1010.6 - 0.0 - - - - - - -
03/09:00pm 18.5 NW 2 5 1010.3 - 0.0 - - - - - - -
03/08:30pm 19.8 W 2 6 1009.9 - 0.0 - - - - - - -
03/08:00pm 19.9 WNW 4 6 1009.7 - 0.0 - - - - - - -
03/07:30pm 20.1 NW 6 9 1009.4 - 0.0 - - - - - - -
03/07:00pm 19.9 NW 7 12 1008.8 - 0.0 - - - - - - -
03/06:30pm 20.0 NW 7 10 1008.4 - 0.0 - - - - - - -
03/06:00pm 20.7 NNW 9 11 1008.0 - 0.0 - - - - - - -
03/05:30pm 21.1 NNW 8 11 1007.7 - 0.0 - - - - - - -
03/05:00pm 21.6 NNW 8 12 1007.4 - 0.0 - - - - - - -
03/04:30pm 22.4 NNW 8 13 1007.4 - 0.0 - - - - - - -
03/04:00pm 22.9 NW 8 12 1007.3 - 0.0 - - - - - - -
03/03:30pm 23.3 NW 7 12 1007.1 - 0.0 - - - - - - -
03/03:00pm 23.8 NW 9 16 1007.1 - 0.0 - - - - - - -
03/02:30pm 24.1 NW 11 18 1007.0 - 0.0 - - - - - - -
03/02:00pm 24.1 NW 11 16 1007.1 - 0.0 - - - - - - -
03/01:30pm 23.2 NW 8 14 1007.8 - 0.0 - - - - - - -
03/01:00pm 23.7 NW 10 17 1008.3 - 0.0 - - - - - - -
03/12:30pm 23.4 NNW 11 17 1009.0 - 0.0 - - - - - - -
03/12:00pm 23.6 NW 11 19 1009.5 - 0.0 - - - - - - -
03/11:30am 22.4 NW 7 13 1010.2 - 0.0 - - - - - - -
03/11:00am 22.0 NW 3 9 1010.9 - 0.0 - - - - - - -
03/10:30am 23.7 N 5 7 1011.3 - 0.0 - - - - - - -
03/10:00am 22.6 NNE 6 7 1011.7 - 0.0 - - - - - - -
03/09:30am 22.2 N 5 6 1012.1 - 0.0 - - - - - - -
03/09:00am 21.7 N 6 8 1012.6 - 0.0 - - - - - - -
03/08:30am 20.9 NNW 3 5 1012.7 - 0.0 - - - - - - -
03/08:00am 20.0 NNW 2 4 1012.7 - 0.0 - - - - - - -
03/07:30am 18.9 CALM 0 1 1012.7 - 0.0 - - - - - - -
03/07:00am 17.6 NW 2 3 1012.4 - 0.0 - - - - - - -
03/06:30am 17.3 CALM 0 2 1012.3 - 0.0 - - - - - - -
03/06:00am 17.6 SSE 1 2 1012.1 - 0.0 - - - - - - -
03/05:30am 17.4 SW 2 3 1011.8 - 0.0 - - - - - - -
03/05:00am 17.2 SW 3 4 1011.5 - 0.0 - - - - - - -
03/04:30am 17.8 W 4 6 1011.3 - 0.0 - - - - - - -
03/04:00am 17.3 NW 4 7 1010.9 - 0.0 - - - - - - -
03/03:30am 16.9 WNW 4 7 1010.7 - 0.0 - - - - - - -
03/03:00am 17.6 W 7 9 1011.0 - 0.0 - - - - - - -
03/02:30am 17.6 W 5 7 1011.1 - 0.0 - - - - - - -
03/02:00am 17.6 WNW 3 5 1011.6 - 0.0 - - - - - - -
03/01:30am 18.0 WNW 4 7 1012.1 - 0.0 - - - - - - -
03/01:00am 18.4 WNW 2 4 1012.4 - 0.0 - - - - - - -
03/12:30am 18.9 W 2 3 1012.8 - 0.0 - - - - - - -
03/12:00am 18.9 SW 2 3 1013.0 - 0.0 - - - - - - -
 
Date/Time
EST
Temp

°C
Wind Pressure Rain
since 9am
mm
Weather Cloud Vis
km
Sea
Height
m
Swell
Dir
 
Speed
knots
Gust
knots
hPa Trend Height
m
Period
s
Dir
02/11:30pm 19.2 WSW 3 5 1013.0 - 0.0 - - - - - - -
02/11:00pm 19.4 W 4 4 1013.2 - 0.0 - - - - - - -
02/10:30pm 19.6 W 3 5 1013.5 - 0.0 - - - - - - -

Other Formats:

Comma delimited format used in spreadsheet applications
http://www.bom.gov.au/fwo/IDN60701/IDN60701.95770.axf

JavaScript Object Notation format (JSON) in row-major order
http://www.bom.gov.au/fwo/IDN60701/IDN60701.95770.json